sensor_id;sensor_type;location;lat;lon;timestamp;pressure;altitude;pressure_sealevel;temperature;humidity
54308;BME280;40208;39.778;2.710;2022-09-12T00:02:21;101259.53;;;23.49;100.00
54308;BME280;40208;39.778;2.710;2022-09-12T00:05:06;101261.09;;;23.52;100.00
54308;BME280;40208;39.778;2.710;2022-09-12T00:07:51;101259.66;;;23.48;100.00
54308;BME280;40208;39.778;2.710;2022-09-12T00:10:38;101253.69;;;23.44;100.00
54308;BME280;40208;39.778;2.710;2022-09-12T00:13:23;101237.88;;;23.40;100.00
54308;BME280;40208;39.778;2.710;2022-09-12T00:16:29;101234.00;;;23.42;100.00
54308;BME280;40208;39.778;2.710;2022-09-12T00:19:14;101221.59;;;23.40;100.00
54308;BME280;40208;39.778;2.710;2022-09-12T00:21:59;101198.63;;;23.24;100.00
54308;BME280;40208;39.778;2.710;2022-09-12T00:24:44;101216.63;;;23.35;100.00
54308;BME280;40208;39.778;2.710;2022-09-12T00:27:29;101218.03;;;23.29;100.00
54308;BME280;40208;39.778;2.710;2022-09-12T00:30:14;101212.75;;;23.28;100.00
54308;BME280;40208;39.778;2.710;2022-09-12T00:32:59;101083.25;;;22.54;100.00
54308;BME280;40208;39.778;2.710;2022-09-12T00:35:46;101198.63;;;23.24;100.00
54308;BME280;40208;39.778;2.710;2022-09-12T00:38:31;101164.41;;;23.04;100.00
54308;BME280;40208;39.778;2.710;2022-09-12T00:41:35;101194.78;;;23.17;100.00
54308;BME280;40208;39.778;2.710;2022-09-12T00:47:12;101185.81;;;23.07;100.00
54308;BME280;40208;39.778;2.710;2022-09-12T00:50:09;101176.97;;;23.05;100.00
54308;BME280;40208;39.778;2.710;2022-09-12T00:53:03;101173.81;;;23.00;100.00
54308;BME280;40208;39.778;2.710;2022-09-12T00:55:50;101143.69;;;22.74;100.00
54308;BME280;40208;39.778;2.710;2022-09-12T00:58:42;101153.53;;;22.84;100.00
54308;BME280;40208;39.778;2.710;2022-09-12T01:01:28;101156.22;;;22.84;100.00
54308;BME280;40208;39.778;2.710;2022-09-12T01:04:14;101150.09;;;22.82;100.00
54308;BME280;40208;39.778;2.710;2022-09-12T01:07:02;101143.13;;;22.80;100.00
54308;BME280;40208;39.778;2.710;2022-09-12T01:09:48;101141.84;;;22.74;100.00
54308;BME280;40208;39.778;2.710;2022-09-12T01:12:33;101101.47;;;22.42;100.00
54308;BME280;40208;39.778;2.710;2022-09-12T01:15:21;101147.94;;;22.67;100.00
54308;BME280;40208;39.778;2.710;2022-09-12T01:21:10;101147.34;;;22.63;100.00
54308;BME280;40208;39.778;2.710;2022-09-12T01:24:11;101140.66;;;22.57;100.00
54308;BME280;40208;39.778;2.710;2022-09-12T01:33:38;101134.38;;;22.47;100.00
54308;BME280;40208;39.778;2.710;2022-09-12T01:36:35;101144.59;;;22.43;100.00
54308;BME280;40208;39.778;2.710;2022-09-12T01:43:06;101136.78;;;22.40;100.00
54308;BME280;40208;39.778;2.710;2022-09-12T01:55:18;101121.19;;;22.23;100.00
54308;BME280;40208;39.778;2.710;2022-09-12T02:01:01;101025.28;;;21.56;100.00
54308;BME280;40208;39.778;2.710;2022-09-12T02:04:07;101051.53;;;21.75;100.00
54308;BME280;40208;39.778;2.710;2022-09-12T02:07:04;101109.25;;;21.95;100.00
54308;BME280;40208;39.778;2.710;2022-09-12T02:10:06;101104.41;;;21.98;100.00
54308;BME280;40208;39.778;2.710;2022-09-12T02:15:48;101089.72;;;21.91;100.00
54308;BME280;40208;39.778;2.710;2022-09-12T02:18:38;101087.16;;;21.90;100.00
54308;BME280;40208;39.778;2.710;2022-09-12T02:21:26;100976.31;;;21.18;100.00
54308;BME280;40208;39.778;2.710;2022-09-12T02:24:13;101085.72;;;21.86;100.00
54308;BME280;40208;39.778;2.710;2022-09-12T02:27:05;101082.44;;;21.82;100.00
54308;BME280;40208;39.778;2.710;2022-09-12T02:29:51;100952.25;;;21.06;100.00
54308;BME280;40208;39.778;2.710;2022-09-12T02:33:00;101072.63;;;21.81;100.00
54308;BME280;40208;39.778;2.710;2022-09-12T02:38:45;101072.59;;;21.71;100.00
54308;BME280;40208;39.778;2.710;2022-09-12T02:41:31;101071.25;;;21.66;100.00
54308;BME280;40208;39.778;2.710;2022-09-12T02:44:16;100950.31;;;20.75;100.00
54308;BME280;40208;39.778;2.710;2022-09-12T02:47:10;101074.03;;;21.54;100.00
54308;BME280;40208;39.778;2.710;2022-09-12T02:49:58;101073.56;;;21.49;100.00
54308;BME280;40208;39.778;2.710;2022-09-12T02:52:44;100951.56;;;20.71;100.00
54308;BME280;40208;39.778;2.710;2022-09-12T02:55:31;101071.44;;;21.43;100.00
54308;BME280;40208;39.778;2.710;2022-09-12T02:58:21;101071.59;;;21.51;100.00
54308;BME280;40208;39.778;2.710;2022-09-12T03:16:42;101074.47;;;21.50;100.00
54308;BME280;40208;39.778;2.710;2022-09-12T03:25:26;101067.72;;;21.44;100.00
54308;BME280;40208;39.778;2.710;2022-09-12T03:28:16;100948.28;;;20.68;100.00
54308;BME280;40208;39.778;2.710;2022-09-12T03:31:14;101082.94;;;21.45;100.00
54308;BME280;40208;39.778;2.710;2022-09-12T03:34:00;101074.53;;;21.27;100.00
54308;BME280;40208;39.778;2.710;2022-09-12T03:36:44;101097.69;;;21.41;100.00
54308;BME280;40208;39.778;2.710;2022-09-12T03:39:29;101104.94;;;21.41;100.00
54308;BME280;40208;39.778;2.710;2022-09-12T03:42:14;101103.56;;;21.35;100.00
54308;BME280;40208;39.778;2.710;2022-09-12T03:44:59;101112.69;;;21.34;100.00
54308;BME280;40208;39.778;2.710;2022-09-12T03:47:44;101107.56;;;21.31;100.00
54308;BME280;40208;39.778;2.710;2022-09-12T03:50:29;101097.78;;;21.18;100.00
54308;BME280;40208;39.778;2.710;2022-09-12T03:53:14;101102.66;;;21.25;100.00
54308;BME280;40208;39.778;2.710;2022-09-12T03:55:59;100977.78;;;20.48;100.00
54308;BME280;40208;39.778;2.710;2022-09-12T03:58:44;101101.19;;;21.21;100.00
54308;BME280;40208;39.778;2.710;2022-09-12T04:01:28;101108.56;;;21.18;100.00
54308;BME280;40208;39.778;2.710;2022-09-12T04:04:13;101100.75;;;21.15;100.00
54308;BME280;40208;39.778;2.710;2022-09-12T04:06:58;101103.91;;;21.21;100.00
54308;BME280;40208;39.778;2.710;2022-09-12T04:09:42;101110.88;;;21.23;100.00
54308;BME280;40208;39.778;2.710;2022-09-12T04:12:28;101106.03;;;21.17;100.00
54308;BME280;40208;39.778;2.710;2022-09-12T04:15:13;101103.31;;;21.17;100.00
54308;BME280;40208;39.778;2.710;2022-09-12T04:17:58;101098.88;;;21.16;100.00
54308;BME280;40208;39.778;2.710;2022-09-12T04:20:43;101091.34;;;21.10;100.00
54308;BME280;40208;39.778;2.710;2022-09-12T04:23:28;101027.81;;;20.73;100.00
54308;BME280;40208;39.778;2.710;2022-09-12T04:26:13;101076.97;;;21.09;100.00
54308;BME280;40208;39.778;2.710;2022-09-12T04:28:58;101072.09;;;21.03;100.00
54308;BME280;40208;39.778;2.710;2022-09-12T04:31:43;101071.09;;;21.04;100.00
54308;BME280;40208;39.778;2.710;2022-09-12T04:34:30;101076.31;;;20.96;100.00
54308;BME280;40208;39.778;2.710;2022-09-12T04:37:15;101067.75;;;20.91;100.00
54308;BME280;40208;39.778;2.710;2022-09-12T04:40:00;101064.25;;;20.79;100.00
54308;BME280;40208;39.778;2.710;2022-09-12T04:42:45;101075.97;;;20.89;100.00
54308;BME280;40208;39.778;2.710;2022-09-12T04:45:29;101074.50;;;20.85;100.00
54308;BME280;40208;39.778;2.710;2022-09-12T04:48:14;101075.56;;;20.94;100.00
54308;BME280;40208;39.778;2.710;2022-09-12T04:51:26;101083.31;;;20.87;100.00
54308;BME280;40208;39.778;2.710;2022-09-12T04:54:15;101078.53;;;20.91;100.00
54308;BME280;40208;39.778;2.710;2022-09-12T04:57:00;101084.91;;;20.90;100.00
54308;BME280;40208;39.778;2.710;2022-09-12T04:59:45;101075.38;;;20.86;100.00
54308;BME280;40208;39.778;2.710;2022-09-12T05:02:32;101067.06;;;20.78;100.00
54308;BME280;40208;39.778;2.710;2022-09-12T05:05:17;101062.50;;;20.78;100.00
54308;BME280;40208;39.778;2.710;2022-09-12T05:08:02;101081.75;;;20.85;100.00
54308;BME280;40208;39.778;2.710;2022-09-12T05:10:46;101081.00;;;20.83;100.00
54308;BME280;40208;39.778;2.710;2022-09-12T05:13:32;101094.38;;;20.84;100.00
54308;BME280;40208;39.778;2.710;2022-09-12T05:16:17;101106.28;;;20.82;100.00
54308;BME280;40208;39.778;2.710;2022-09-12T05:19:03;101095.91;;;20.66;100.00
54308;BME280;40208;39.778;2.710;2022-09-12T05:21:47;101089.03;;;20.62;100.00
54308;BME280;40208;39.778;2.710;2022-09-12T05:24:32;101012.94;;;20.15;100.00
54308;BME280;40208;39.778;2.710;2022-09-12T05:27:17;101125.53;;;20.77;100.00
54308;BME280;40208;39.778;2.710;2022-09-12T05:30:02;101117.56;;;20.75;100.00
54308;BME280;40208;39.778;2.710;2022-09-12T05:32:46;101124.72;;;20.65;100.00
54308;BME280;40208;39.778;2.710;2022-09-12T05:35:31;101129.34;;;20.74;100.00
54308;BME280;40208;39.778;2.710;2022-09-12T05:38:16;101129.75;;;20.70;100.00
54308;BME280;40208;39.778;2.710;2022-09-12T05:41:28;101125.56;;;20.66;100.00
54308;BME280;40208;39.778;2.710;2022-09-12T05:44:11;101131.78;;;20.78;100.00
54308;BME280;40208;39.778;2.710;2022-09-12T05:46:57;101129.56;;;20.83;100.00
54308;BME280;40208;39.778;2.710;2022-09-12T05:49:42;101127.09;;;20.91;100.00
54308;BME280;40208;39.778;2.710;2022-09-12T05:52:28;101124.03;;;20.95;100.00
54308;BME280;40208;39.778;2.710;2022-09-12T05:55:13;101129.50;;;21.05;100.00
54308;BME280;40208;39.778;2.710;2022-09-12T05:57:58;101130.94;;;21.09;100.00
54308;BME280;40208;39.778;2.710;2022-09-12T06:00:43;101128.84;;;21.13;100.00
54308;BME280;40208;39.778;2.710;2022-09-12T06:03:29;101059.06;;;20.76;100.00
54308;BME280;40208;39.778;2.710;2022-09-12T06:06:16;101128.25;;;21.09;100.00
54308;BME280;40208;39.778;2.710;2022-09-12T06:09:03;101128.19;;;21.21;100.00
54308;BME280;40208;39.778;2.710;2022-09-12T06:11:48;101120.25;;;21.19;100.00
54308;BME280;40208;39.778;2.710;2022-09-12T06:14:33;101108.66;;;21.07;100.00
54308;BME280;40208;39.778;2.710;2022-09-12T06:17:18;101121.59;;;21.13;100.00
54308;BME280;40208;39.778;2.710;2022-09-12T06:20:03;101130.03;;;21.20;100.00
54308;BME280;40208;39.778;2.710;2022-09-12T06:22:52;101095.28;;;21.06;100.00
54308;BME280;40208;39.778;2.710;2022-09-12T06:25:37;101138.56;;;21.36;100.00
54308;BME280;40208;39.778;2.710;2022-09-12T06:28:21;101125.28;;;21.45;100.00
54308;BME280;40208;39.778;2.710;2022-09-12T06:31:11;101129.84;;;21.44;100.00
54308;BME280;40208;39.778;2.710;2022-09-12T06:33:59;101129.84;;;21.44;100.00
54308;BME280;40208;39.778;2.710;2022-09-12T06:36:48;101105.66;;;21.43;100.00
54308;BME280;40208;39.778;2.710;2022-09-12T06:39:33;101122.00;;;21.62;100.00
54308;BME280;40208;39.778;2.710;2022-09-12T06:42:20;101119.75;;;21.67;100.00
54308;BME280;40208;39.778;2.710;2022-09-12T06:45:06;101119.22;;;21.73;100.00
54308;BME280;40208;39.778;2.710;2022-09-12T06:47:51;101124.38;;;21.76;100.00
54308;BME280;40208;39.778;2.710;2022-09-12T06:50:36;101115.31;;;21.87;100.00
54308;BME280;40208;39.778;2.710;2022-09-12T06:53:21;101117.47;;;21.93;100.00
54308;BME280;40208;39.778;2.710;2022-09-12T06:56:10;101111.50;;;21.99;100.00
54308;BME280;40208;39.778;2.710;2022-09-12T06:58:57;101105.44;;;22.07;100.00
54308;BME280;40208;39.778;2.710;2022-09-12T07:01:42;101104.03;;;22.13;100.00
54308;BME280;40208;39.778;2.710;2022-09-12T07:04:27;101091.06;;;22.07;100.00
54308;BME280;40208;39.778;2.710;2022-09-12T07:07:12;101101.22;;;22.14;100.00
54308;BME280;40208;39.778;2.710;2022-09-12T07:09:58;101095.16;;;22.22;100.00
54308;BME280;40208;39.778;2.710;2022-09-12T07:12:42;101095.31;;;22.30;100.00
54308;BME280;40208;39.778;2.710;2022-09-12T07:15:27;101088.97;;;22.20;100.00
54308;BME280;40208;39.778;2.710;2022-09-12T07:18:12;101096.47;;;22.37;100.00
54308;BME280;40208;39.778;2.710;2022-09-12T07:21:01;101104.47;;;22.49;100.00
54308;BME280;40208;39.778;2.710;2022-09-12T07:23:46;101043.72;;;22.12;100.00
54308;BME280;40208;39.778;2.710;2022-09-12T07:26:31;101005.97;;;22.01;100.00
54308;BME280;40208;39.778;2.710;2022-09-12T07:29:16;101099.38;;;22.65;100.00
54308;BME280;40208;39.778;2.710;2022-09-12T07:32:01;100977.81;;;22.03;100.00
54308;BME280;40208;39.778;2.710;2022-09-12T07:34:45;101105.09;;;22.72;100.00
54308;BME280;40208;39.778;2.710;2022-09-12T07:37:30;101113.09;;;22.83;100.00
54308;BME280;40208;39.778;2.710;2022-09-12T07:40:15;101109.97;;;22.88;100.00
54308;BME280;40208;39.778;2.710;2022-09-12T07:43:00;101071.91;;;22.79;100.00
54308;BME280;40208;39.778;2.710;2022-09-12T07:45:45;101092.00;;;22.96;100.00
54308;BME280;40208;39.778;2.710;2022-09-12T07:48:30;101107.41;;;23.05;100.00
54308;BME280;40208;39.778;2.710;2022-09-12T07:51:15;101104.28;;;23.20;100.00
54308;BME280;40208;39.778;2.710;2022-09-12T07:54:00;101094.16;;;23.32;100.00
54308;BME280;40208;39.778;2.710;2022-09-12T07:56:46;101077.75;;;23.43;100.00
54308;BME280;40208;39.778;2.710;2022-09-12T07:59:30;101076.56;;;23.55;100.00
54308;BME280;40208;39.778;2.710;2022-09-12T08:02:15;101073.69;;;23.66;100.00
54308;BME280;40208;39.778;2.710;2022-09-12T08:05:00;101074.41;;;23.78;100.00
54308;BME280;40208;39.778;2.710;2022-09-12T08:07:46;101071.91;;;23.95;100.00
54308;BME280;40208;39.778;2.710;2022-09-12T08:10:31;101057.66;;;23.92;100.00
54308;BME280;40208;39.778;2.710;2022-09-12T08:13:16;101054.88;;;24.02;100.00
54308;BME280;40208;39.778;2.710;2022-09-12T08:16:06;101103.41;;;24.33;100.00
54308;BME280;40208;39.778;2.710;2022-09-12T08:18:51;101086.19;;;24.52;100.00
54308;BME280;40208;39.778;2.710;2022-09-12T08:21:36;101092.16;;;24.55;100.00
54308;BME280;40208;39.778;2.710;2022-09-12T08:24:21;101093.94;;;24.65;100.00
54308;BME280;40208;39.778;2.710;2022-09-12T08:27:06;101081.94;;;24.67;100.00
54308;BME280;40208;39.778;2.710;2022-09-12T08:29:51;101061.84;;;24.60;100.00
54308;BME280;40208;39.778;2.710;2022-09-12T08:32:36;101106.00;;;24.98;100.00
54308;BME280;40208;39.778;2.710;2022-09-12T08:35:21;101104.91;;;25.09;100.00
54308;BME280;40208;39.778;2.710;2022-09-12T08:38:06;101116.16;;;25.14;100.00
54308;BME280;40208;39.778;2.710;2022-09-12T08:40:59;101085.81;;;25.01;100.00
54308;BME280;40208;39.778;2.710;2022-09-12T08:55:44;101091.78;;;25.66;100.00
54308;BME280;40208;39.778;2.710;2022-09-12T08:58:34;101090.13;;;25.73;100.00
54308;BME280;40208;39.778;2.710;2022-09-12T09:01:31;101095.47;;;25.83;100.00
54308;BME280;40208;39.778;2.710;2022-09-12T09:10:23;101108.91;;;26.19;100.00
54308;BME280;40208;39.778;2.710;2022-09-12T09:16:43;101103.91;;;26.40;100.00
54308;BME280;40208;39.778;2.710;2022-09-12T09:19:38;101099.00;;;26.52;100.00
54308;BME280;40208;39.778;2.710;2022-09-12T09:22:37;101098.38;;;26.58;100.00
54308;BME280;40208;39.778;2.710;2022-09-12T09:25:35;101004.31;;;26.05;100.00
54308;BME280;40208;39.778;2.710;2022-09-12T09:28:27;101102.34;;;26.72;100.00
54308;BME280;40208;39.778;2.710;2022-09-12T09:31:21;101108.28;;;26.76;100.00
54308;BME280;40208;39.778;2.710;2022-09-12T09:34:21;101105.91;;;26.81;100.00
54308;BME280;40208;39.778;2.710;2022-09-12T09:37:17;101110.84;;;26.85;100.00
54308;BME280;40208;39.778;2.710;2022-09-12T09:40:06;101105.41;;;26.85;100.00
54308;BME280;40208;39.778;2.710;2022-09-12T09:43:09;101073.72;;;26.68;100.00
54308;BME280;40208;39.778;2.710;2022-09-12T09:45:56;101125.34;;;26.94;100.00
54308;BME280;40208;39.778;2.710;2022-09-12T09:48:47;101117.84;;;27.04;100.00
54308;BME280;40208;39.778;2.710;2022-09-12T09:51:38;101117.34;;;27.09;100.00
54308;BME280;40208;39.778;2.710;2022-09-12T09:54:39;101014.16;;;26.57;100.00
54308;BME280;40208;39.778;2.710;2022-09-12T10:00:34;101125.41;;;27.43;100.00
54308;BME280;40208;39.778;2.710;2022-09-12T10:03:37;101119.41;;;27.56;100.00
54308;BME280;40208;39.778;2.710;2022-09-12T10:06:27;101112.41;;;27.62;100.00
54308;BME280;40208;39.778;2.710;2022-09-12T10:09:18;101108.50;;;27.73;100.00
54308;BME280;40208;39.778;2.710;2022-09-12T10:12:25;101100.28;;;27.81;100.00
54308;BME280;40208;39.778;2.710;2022-09-12T10:15:21;101103.88;;;27.89;100.00
54308;BME280;40208;39.778;2.710;2022-09-12T10:18:07;101004.97;;;27.32;100.00
54308;BME280;40208;39.778;2.710;2022-09-12T10:20:52;101098.22;;;27.99;100.00
54308;BME280;40208;39.778;2.710;2022-09-12T10:23:37;101107.59;;;28.05;100.00
54308;BME280;40208;39.778;2.710;2022-09-12T10:26:25;101116.09;;;28.10;100.00
54308;BME280;40208;39.778;2.710;2022-09-12T10:29:48;101110.78;;;28.17;100.00
54308;BME280;40208;39.778;2.710;2022-09-12T10:32:41;101095.94;;;28.19;100.00
54308;BME280;40208;39.778;2.710;2022-09-12T10:35:49;101101.72;;;28.24;100.00
54308;BME280;40208;39.778;2.710;2022-09-12T10:38:36;101106.97;;;28.26;100.00
54308;BME280;40208;39.778;2.710;2022-09-12T10:41:21;101093.84;;;28.21;100.00
54308;BME280;40208;39.778;2.710;2022-09-12T10:44:17;101090.97;;;28.23;100.00
54308;BME280;40208;39.778;2.710;2022-09-12T10:47:20;100999.88;;;27.76;100.00
54308;BME280;40208;39.778;2.710;2022-09-12T10:50:22;101087.66;;;28.36;100.00
54308;BME280;40208;39.778;2.710;2022-09-12T10:53:18;101086.56;;;28.45;100.00
54308;BME280;40208;39.778;2.710;2022-09-12T11:05:27;101076.09;;;28.65;100.00
54308;BME280;40208;39.778;2.710;2022-09-12T11:11:35;101065.63;;;28.68;100.00
54308;BME280;40208;39.778;2.710;2022-09-12T11:14:39;100995.56;;;28.29;100.00
54308;BME280;40208;39.778;2.710;2022-09-12T11:29:50;101070.88;;;29.01;100.00
54308;BME280;40208;39.778;2.710;2022-09-12T11:35:39;101053.25;;;29.04;100.00
54308;BME280;40208;39.778;2.710;2022-09-12T11:41:40;101039.34;;;29.13;100.00
54308;BME280;40208;39.778;2.710;2022-09-12T11:44:32;101032.22;;;29.27;100.00
54308;BME280;40208;39.778;2.710;2022-09-12T11:47:19;101026.59;;;29.29;100.00
54308;BME280;40208;39.778;2.710;2022-09-12T11:50:21;101026.94;;;29.26;100.00
54308;BME280;40208;39.778;2.710;2022-09-12T11:53:18;101021.78;;;29.31;100.00
54308;BME280;40208;39.778;2.710;2022-09-12T11:56:08;101020.56;;;29.33;100.00
54308;BME280;40208;39.778;2.710;2022-09-12T11:59:02;101018.09;;;29.38;100.00
54308;BME280;40208;39.778;2.710;2022-09-12T12:01:49;101020.47;;;29.42;100.00
54308;BME280;40208;39.778;2.710;2022-09-12T12:04:55;101011.78;;;29.38;100.00
54308;BME280;40208;39.778;2.710;2022-09-12T12:07:51;101019.34;;;29.51;100.00
54308;BME280;40208;39.778;2.710;2022-09-12T12:10:42;101013.19;;;29.49;100.00
54308;BME280;40208;39.778;2.710;2022-09-12T12:16:23;100913.88;;;28.89;100.00
54308;BME280;40208;39.778;2.710;2022-09-12T12:22:11;101005.75;;;29.57;100.00
54308;BME280;40208;39.778;2.710;2022-09-12T12:36:07;100976.78;;;29.63;100.00
54308;BME280;40208;39.778;2.710;2022-09-12T12:38:52;100912.78;;;29.28;100.00
54308;BME280;40208;39.778;2.710;2022-09-12T12:41:43;100993.69;;;29.82;100.00
54308;BME280;40208;39.778;2.710;2022-09-12T12:47:38;100997.47;;;29.95;100.00
54308;BME280;40208;39.778;2.710;2022-09-12T12:50:26;100989.44;;;29.94;100.00
54308;BME280;40208;39.778;2.710;2022-09-12T12:53:23;100992.81;;;29.96;100.00
54308;BME280;40208;39.778;2.710;2022-09-12T12:56:34;100998.56;;;30.01;100.00
54308;BME280;40208;39.778;2.710;2022-09-12T12:59:22;100983.56;;;29.97;100.00
54308;BME280;40208;39.778;2.710;2022-09-12T13:02:18;100987.63;;;30.01;100.00
54308;BME280;40208;39.778;2.710;2022-09-12T13:05:15;101008.75;;;30.07;100.00
54308;BME280;40208;39.778;2.710;2022-09-12T13:08:27;101028.38;;;30.11;100.00
54308;BME280;40208;39.778;2.710;2022-09-12T13:11:28;101007.13;;;30.13;100.00
54308;BME280;40208;39.778;2.710;2022-09-12T13:17:38;101019.22;;;30.18;100.00
54308;BME280;40208;39.778;2.710;2022-09-12T13:20:30;101016.66;;;30.17;100.00
54308;BME280;40208;39.778;2.710;2022-09-12T13:23:27;101032.72;;;30.20;100.00
54308;BME280;40208;39.778;2.710;2022-09-12T13:26:22;101000.16;;;30.10;100.00
54308;BME280;40208;39.778;2.710;2022-09-12T13:29:10;101028.94;;;30.21;100.00
54308;BME280;40208;39.778;2.710;2022-09-12T13:32:00;101023.91;;;30.25;100.00
54308;BME280;40208;39.778;2.710;2022-09-12T13:44:09;101011.19;;;30.17;100.00
54308;BME280;40208;39.778;2.710;2022-09-12T13:46:58;100930.28;;;29.78;100.00
54308;BME280;40208;39.778;2.710;2022-09-12T13:49:44;100968.00;;;29.97;100.00
54308;BME280;40208;39.778;2.710;2022-09-12T13:52:33;101008.19;;;30.27;100.00
54308;BME280;40208;39.778;2.710;2022-09-12T13:58:29;101015.34;;;30.28;100.00
54308;BME280;40208;39.778;2.710;2022-09-12T14:01:14;101012.81;;;30.26;100.00
54308;BME280;40208;39.778;2.710;2022-09-12T14:03:59;101018.72;;;30.30;100.00
54308;BME280;40208;39.778;2.710;2022-09-12T14:07:22;101008.44;;;30.32;100.00
54308;BME280;40208;39.778;2.710;2022-09-12T14:10:15;101006.81;;;30.22;100.00
54308;BME280;40208;39.778;2.710;2022-09-12T14:13:25;101012.81;;;30.26;100.00
54308;BME280;40208;39.778;2.710;2022-09-12T14:16:10;100904.44;;;29.66;100.00
54308;BME280;40208;39.778;2.710;2022-09-12T14:18:56;100995.22;;;30.20;100.00
54308;BME280;40208;39.778;2.710;2022-09-12T14:21:41;100988.06;;;30.19;100.00
54308;BME280;40208;39.778;2.710;2022-09-12T14:24:25;100951.19;;;30.00;100.00
54308;BME280;40208;39.778;2.710;2022-09-12T14:27:10;100994.38;;;30.20;100.00
54308;BME280;40208;39.778;2.710;2022-09-12T14:30:13;100989.47;;;30.15;100.00
54308;BME280;40208;39.778;2.710;2022-09-12T14:36:11;100985.38;;;30.05;100.00
54308;BME280;40208;39.778;2.710;2022-09-12T14:39:04;100974.34;;;29.98;100.00
54308;BME280;40208;39.778;2.710;2022-09-12T14:41:58;100974.50;;;29.96;100.00
54308;BME280;40208;39.778;2.710;2022-09-12T14:45:02;100967.09;;;29.90;100.00
54308;BME280;40208;39.778;2.710;2022-09-12T14:47:50;100941.63;;;29.75;100.00
54308;BME280;40208;39.778;2.710;2022-09-12T14:50:36;100958.78;;;29.84;100.00
54308;BME280;40208;39.778;2.710;2022-09-12T14:53:33;100947.38;;;29.80;100.00
54308;BME280;40208;39.778;2.710;2022-09-12T14:56:21;100848.91;;;29.14;100.00
54308;BME280;40208;39.778;2.710;2022-09-12T14:59:25;100935.69;;;29.71;100.00
54308;BME280;40208;39.778;2.710;2022-09-12T15:07:56;100803.72;;;28.88;100.00
54308;BME280;40208;39.778;2.710;2022-09-12T15:10:42;100914.19;;;29.53;100.00
54308;BME280;40208;39.778;2.710;2022-09-12T15:13:28;100748.00;;;28.45;100.00
54308;BME280;40208;39.778;2.710;2022-09-12T15:16:22;100914.97;;;29.47;100.00
54308;BME280;40208;39.778;2.710;2022-09-12T15:19:06;100906.28;;;29.44;100.00
54308;BME280;40208;39.778;2.710;2022-09-12T15:21:51;100906.19;;;29.37;100.00
54308;BME280;40208;39.778;2.710;2022-09-12T15:24:36;100900.72;;;29.37;100.00
54308;BME280;40208;39.778;2.710;2022-09-12T15:27:23;100797.06;;;28.76;100.00
54308;BME280;40208;39.778;2.710;2022-09-12T15:30:10;100884.69;;;29.34;100.00
54308;BME280;40208;39.778;2.710;2022-09-12T15:32:56;100889.69;;;29.30;100.00
54308;BME280;40208;39.778;2.710;2022-09-12T15:35:43;100882.03;;;29.26;100.00
54308;BME280;40208;39.778;2.710;2022-09-12T15:38:28;100775.44;;;28.51;100.00
54308;BME280;40208;39.778;2.710;2022-09-12T15:41:19;100771.59;;;28.61;100.00
54308;BME280;40208;39.778;2.710;2022-09-12T15:44:06;100870.84;;;29.21;100.00
54308;BME280;40208;39.778;2.710;2022-09-12T15:46:54;100864.91;;;29.17;100.00
54308;BME280;40208;39.778;2.710;2022-09-12T15:49:39;100870.09;;;29.12;100.00
54308;BME280;40208;39.778;2.710;2022-09-12T15:52:24;100851.78;;;28.98;100.00
54308;BME280;40208;39.778;2.710;2022-09-12T15:55:21;100864.22;;;29.00;100.00
54308;BME280;40208;39.778;2.710;2022-09-12T15:58:07;100788.38;;;28.58;100.00
54308;BME280;40208;39.778;2.710;2022-09-12T16:00:52;100856.31;;;29.05;100.00
54308;BME280;40208;39.778;2.710;2022-09-12T16:03:37;100759.50;;;28.40;100.00
54308;BME280;40208;39.778;2.710;2022-09-12T16:06:22;100860.41;;;29.09;100.00
54308;BME280;40208;39.778;2.710;2022-09-12T16:09:07;100796.75;;;28.86;100.00
54308;BME280;40208;39.778;2.710;2022-09-12T16:11:52;100762.56;;;28.60;100.00
54308;BME280;40208;39.778;2.710;2022-09-12T16:14:36;100840.03;;;29.12;100.00
54308;BME280;40208;39.778;2.710;2022-09-12T16:17:21;100838.84;;;29.06;100.00
54308;BME280;40208;39.778;2.710;2022-09-12T16:20:07;100733.38;;;28.46;100.00
54308;BME280;40208;39.778;2.710;2022-09-12T16:22:52;100788.94;;;28.83;100.00
54308;BME280;40208;39.778;2.710;2022-09-12T16:25:38;100823.81;;;29.10;100.00
54308;BME280;40208;39.778;2.710;2022-09-12T16:28:23;100827.03;;;29.14;100.00
54308;BME280;40208;39.778;2.710;2022-09-12T16:31:10;100809.19;;;29.18;100.00
54308;BME280;40208;39.778;2.710;2022-09-12T16:33:56;100798.25;;;29.03;100.00
54308;BME280;40208;39.778;2.710;2022-09-12T16:36:41;100813.38;;;29.14;100.00
54308;BME280;40208;39.778;2.710;2022-09-12T16:39:28;100801.66;;;29.05;100.00
54308;BME280;40208;39.778;2.710;2022-09-12T16:42:15;100794.81;;;29.09;100.00
54308;BME280;40208;39.778;2.710;2022-09-12T16:45:01;100795.91;;;29.15;100.00
54308;BME280;40208;39.778;2.710;2022-09-12T16:47:46;100791.03;;;29.10;100.00
54308;BME280;40208;39.778;2.710;2022-09-12T16:50:30;100788.28;;;29.10;96.78
54308;BME280;40208;39.778;2.710;2022-09-12T16:53:15;100804.13;;;29.15;97.34
54308;BME280;40208;39.778;2.710;2022-09-12T16:56:02;100693.06;;;28.63;90.96
54308;BME280;40208;39.778;2.710;2022-09-12T16:58:47;100796.38;;;29.18;90.99
54308;BME280;40208;39.778;2.710;2022-09-12T17:01:32;100779.59;;;29.07;87.58
54308;BME280;40208;39.778;2.710;2022-09-12T17:04:18;100783.88;;;29.09;78.43
54308;BME280;40208;39.778;2.710;2022-09-12T17:07:03;100787.22;;;29.11;88.35
54308;BME280;40208;39.778;2.710;2022-09-12T17:09:48;100788.09;;;29.12;81.75